AirNav   Phillips 66 Aviation Fuel
 
 927 users online  

6M2 Horseshoe Bend Airport
Horseshoe Bend, Arkansas, USA

GOING TO HORSESHOE BEND?


FAA INFORMATION EFFECTIVE 01 FEBRUARY 2018

Location

FAA Identifier: 6M2
Lat/Long: 36-13-16.9210N / 091-45-19.7230W
36-13.282017N / 091-45.328717W
36.2213669 / -91.7554786
(estimated)
Elevation: 782 ft. / 238 m (estimated)
Variation: 00E (2020)
From city: 1 mile NE of HORSESHOE BEND, AR
Time zone: UTC -6 (UTC -5 during Daylight Saving Time)
Zip code: 72512

Airport Operations

Airport use: Open to the public
Activation date: 08/1964
Control tower: no
ARTCC: MEMPHIS CENTER
FSS: JONESBORO FLIGHT SERVICE STATION
NOTAMs facility: JBR (NOTAM-D service available)
Attendance: UNATNDD
Wind indicator: lighted
Segmented circle: yes
Lights: DUSK-DAWN. ACTVT MIRL RY 13/31 - CTAF.
Beacon: white-green (lighted land airport)
Operates sunset to sunrise.

Airport Communications

CTAF/UNICOM: 122.8
  • APCH/DEP SVC PRVDD BY MEMPHIS ARTCC (ZME) ON 120.075/289.4 (WALNUT RIDGE RCAG).

Nearby radio navigation aids

VOR radial/distance  VOR name  Freq  Var
FLPr095/34.3FLIPPIN VOR/DME112.8003E
ARGr276/39.4WALNUT RIDGE VORTAC114.5004E

Airport Services

Fuel available: 100LL
SELF SERVE FUEL AVBL 24 HRS WITH CREDIT CARD.
Parking: hangars and tiedowns

Runway Information

Runway 13/31

Dimensions: 4524 x 60 ft. / 1379 x 18 m
Surface: asphalt, in good condition
Weight bearing capacity: 
Single wheel: 4.0
Runway edge lights: medium intensity
RUNWAY 13  RUNWAY 31
Latitude: 36-13.498167N36-13.065833N
Longitude: 091-45.703767W091-44.953833W
Elevation: 782.0 ft.777.5 ft.
Gradient: 0.5%0.5%
Traffic pattern: leftleft
Runway heading: 125305
Displaced threshold: 1018 ft.no
Markings: basic, in good conditionnonprecision, in good condition
Visual slope indicator: 2-light PAPI on left (3.00 degrees glide path)
Obstructions: 100 ft. trees, 1200 ft. from runway, 10:1 slope to clear
TERRAIN RISES 681 FT BTN 200-1100 FT FM END OF RY.
30 ft. tree, 400 ft. from runway, 225 ft. right of centerline, 6:1 slope to clear

Airport Ownership and Management from official FAA records

Ownership: Publicly-owned
Owner: CITY OF HORSEHOE BEND
CITY HALL - 704 W COMMERCE
HORSESHOE BEND, AR 72512
Phone 870-670-5113
Manager: MIKE SLAVIN
704 W COMMERCE
HORSESHOE BEND, AR 72512
Phone 901-489-0687

Airport Operational Statistics

Aircraft based on the field: 10
Single engine airplanes: 8
Multi engine airplanes: 1
Helicopters: 1
    
Aircraft operations: avg 123/week *
55% transient general aviation
39% local general aviation
6% military
* for 12-month period ending 30 June 2017

Additional Remarks

RAPIDLY RISING TERRAIN WITH TREES ON FINAL APCH RY 13.
RECOMMEND TKOF RY 13 DUE TO RAPIDLY RISING TERRAIN NW OF ARPT.
DEER ON & INVOF ARPT.
PAY PHONE AVBL

Instrument Procedures

NOTE: All procedures below are presented as PDF files. If you need a reader for these files, you should download the free Adobe Reader.

NOT FOR NAVIGATION. Please procure official charts for flight.
FAA instrument procedures published for use between 1 February 2018 at 0901Z and 1 March 2018 at 0900Z.

 
IAPs - Instrument Approach Procedures
RNAV (GPS)-A   download (147KB)
NOTE: Special Take-Off Minimums/Departure Procedures apply   download (210KB)

Other nearby airports with instrument procedures:

KCVK - Sharp County Regional Airport (10 nm E)
42A - Melbourne Municipal Airport - John E Miller Field (10 nm S)
7M2 - Mountain View Airport-Wilcox Memorial Field (27 nm SW)
KBVX - Batesville Regional Airport (30 nm S)
KBPK - Baxter County Airport (36 nm W)
 
Loc | Ops | Rwys | IFR | FBO | Links
Com | Nav | Svcs | Stats | Notes

Fly Arkansas
AirBoss

 
Area around 6M2 (Horseshoe Bend Airport)
 
Road maps at: MapQuest Bing Google
 
Aerial photo
WARNING: Photo may not be current or correct
Aerial photo of 6M2 (Horseshoe Bend Airport)
Photo courtesy of the Arkansas Department of Aeronautics
Taken in the Spring of 2007

Do you have a better or more recent aerial photo of Horseshoe Bend Airport that you would like to share? If so, please send us your photo.

 
Sectional chart

 
Airport distance calculator
Flying to Horseshoe Bend Airport? Find the distance to fly.

From to 6M2

Sunrise and sunset
Times for 20-Feb-2018
 Local
(UTC-6)
 Zulu
(UTC)
Morning civil twilight06:2412:24
Sunrise06:5012:50
Sunset17:5223:52
Evening civil twilight18:1800:18

Current date and time
Zulu (UTC)  21-Feb-2018 03:53:10
Local (UTC-6)  20-Feb-2018 21:53:10
 
METAR
KBVX 
31nm S 
210339Z AUTO 31008G15KT 280V350 10SM -TSRA SCT006 BKN031 OVC060 14/13 A3009 RMK AO2 PK WND 24033/0313 WSHFT 0308 LTG DSNT ALQDS TSE10B11RAB02 P0046
KFLP 
35nm W 
210322Z AUTO 34004KT 10SM RA FEW007 SCT038 OVC055 06/06 A3009 RMK AO2 P0008
KBPK 
35nm W 
210325Z AUTO 02006KT 5SM RA BR FEW004 BKN036 OVC070 07/07 A3007 RMK AO2 P0014 T00670067
KUNO 
40nm N 
210253Z AUTO 36008KT 5SM RA BR BKN060 OVC075 05/04 A3007 RMK AO2 PK WND 34031/0208 LTG DSNT E AND SE SLP180 P0049 60168 T00500039 50023
KARG 
41nm E 
210336Z AUTO 16017KT 9SM VCTS OVC055 22/18 A2999 RMK AO2 LTG DSNT ALQDS TSB30RAB0259E10 P0000
KM19 
45nm SE 
210340Z AUTO 19019KT 8SM TSRA 21/18 A3002 RMK AO2 PK WND 19032/0317 LTG DSNT ALQDS TSB04E37B40RAB05 P0015 $
TAF
KBPK 
35nm W 
210033Z 2101/2124 33009KT 6SM -RA BR SCT020 OVC050 TEMPO 2101/2103 2SM TSRA BR OVC020CB FM210400 32009KT 3SM -RA VCTS BKN025CB OVC050 FM210600 32009KT 3SM -RA BR VCTS BKN008 OVC030CB FM210900 33008G15KT 3SM -RA BR OVC008 FM211200 36008KT 5SM -RA BR SCT005 OVC020
NOTAMs
Click for the latest NOTAMs
NOTAMs are issued by the DoD/FAA and will open in a separate window not controlled by AirNav.

 

 
 

FBO, Fuel Providers, and Aircraft Ground Support

  
 Business Name 
 
 Contact 
 
 Services / Description 
 
Fuel Prices
 
Comments
  
City of Horseshoe Bend 870-670-5113 Airport management, Aviation fuel, Public telephone, Restrooms

More info about City of Horseshoe Bend
Phillips 66
100LL
SS $3.92 
 Updated 14-Feb-2018
 
   4 read write
SS=Self service
Update Fuel Prices
 

Where to Stay: Hotels, Motels, Resorts, B&Bs, Campgrounds

 The hotels featured here are reported to be very convenient to the Horseshoe Bend Airport. If your hotel/inn/B&B/resort is near the Horseshoe Bend Airport, provides convenient transportation, or is otherwise attractive to pilots, flight crews, and airport users, consider listing it here.
  
 Business Name 
 
 Contact 
 
 Services / Description 
 
Distance
 
Comments
  
Cedar Glade Resort 870-670-5141
[web site]
[email]
Lodging

More info about Cedar Glade Resort
0.5 miles  
   write
Feature A Hotel
 

Would you like to see your business listed on this page?

 If your business provides an interesting product or service to pilots, flight crews, aircraft, or users of the Horseshoe Bend Airport, you should consider listing it here.  To start the listing process, click on the button below
 
Add a business
 

Other Pages about Horseshoe Bend Airport

Update a link
 
Copyright © AirNav, LLC. All rights reserved. Privacy Policy  Contact